This is the latest recevied weather packets stored in our database for station/object K6HN. If no packets are shown the sender has not sent any weather packets the latest 10 day(s).
| Time | Temp. | Humidity | Pressure | Rain* | Wind** | Luminosity | Snow |
|---|---|---|---|---|---|---|---|
| 1777606979 | 11.11° C | 50% | 1000 hPa | 0 mm | - | - | - |
| 1777606079 | 11.11° C | 50% | 1000 hPa | 0 mm | - | - | - |
| 1777605179 | 11.11° C | 49% | 1000 hPa | 0 mm | - | - | - |
| 1777604279 | 11.11° C | 49% | 1000 hPa | 0 mm | - | - | - |
| 1777603379 | 11.11° C | 49% | 1000 hPa | 0 mm | - | - | - |
| 1777602479 | 11.11° C | 49% | 999.7 hPa | 0 mm | - | - | - |
| 1777601579 | 11.67° C | 49% | 1000 hPa | 0 mm | - | - | - |
| 1777600679 | 11.67° C | 49% | 1000 hPa | 0 mm | - | - | - |
| 1777584479 | 14.44° C | 50% | 1001 hPa | 0 mm | - | - | - |
| 1777582679 | 15° C | 52% | 1001 hPa | 0 mm | - | - | - |
| 1777580879 | 14.44° C | 54% | 1001.4 hPa | 0 mm | - | - | - |
| 1777579979 | 14.44° C | 55% | 1001.4 hPa | 0 mm | - | - | - |
| 1777579079 | 14.44° C | 53% | 1001.4 hPa | 0 mm | - | - | - |
| 1777578179 | 14.44° C | 50% | 1001 hPa | 0 mm | - | - | - |
| 1777577279 | 13.89° C | 48% | 1001.4 hPa | 0 mm | - | - | - |
| 1777576379 | 13.89° C | 48% | 1001.4 hPa | 0 mm | - | - | - |
| 1777575479 | 13.89° C | 48% | 1001.4 hPa | 0 mm | - | - | - |
| 1777573679 | 13.33° C | 49% | 1001.7 hPa | 0 mm | - | - | - |
| 1777572779 | 12.78° C | 49% | 1001.7 hPa | 0 mm | - | - | - |
| 1777570079 | 12.22° C | 48% | 1001.4 hPa | 0 mm | - | - | - |
| 1777569179 | 12.22° C | 48% | 1001.4 hPa | 0 mm | - | - | - |
| 1777568279 | 12.22° C | 49% | 1001.4 hPa | 0 mm | - | - | - |
| 1777565579 | 11.67° C | 48% | 1001.4 hPa | 0 mm | - | - | - |
| 1777564679 | 11.11° C | 48% | 1001.4 hPa | 0 mm | - | - | - |
| 1777563779 | 11.11° C | 48% | 1001 hPa | 0 mm | - | - | - |
* Rain latest hour (hover to see other rain measurements)
** Current wind speed in m/s (hover to see current wind gust speed)